Time;durP1;ratioP1;P1;durP2;ratioP2;P2;SDS_P1;SDS_P2;PMS_P1;PMS_P2;Temp;Humidity;BMP_temperature;BMP_pressure;BME280_temperature;BME280_humidity;BME280_pressure;Samples;Min_cycle;Max_cycle;Signal;HPM_P1;HPM_P2
2024/02/18 00:01:33;;;;;;;43.10;30.42;;;10.60;99.90;;;;;;5107802;27;20082;-63
2024/02/18 00:03:59;;;;;;;45.33;31.58;;;10.60;99.90;;;;;;5112292;27;20493;-63
2024/02/18 00:06:25;;;;;;;45.22;31.77;;;10.60;99.90;;;;;;5114586;27;20043;-63
2024/02/18 00:08:51;;;;;;;51.47;31.42;;;10.60;99.90;;;;;;5117260;27;20035;-63
2024/02/18 00:11:16;;;;;;;45.22;30.95;;;10.70;99.90;;;;;;5113949;27;20040;-63
2024/02/18 00:13:42;;;;;;;47.58;30.05;;;10.60;99.90;;;;;;5111779;27;20354;-63
2024/02/18 00:16:08;;;;;;;45.90;32.15;;;10.60;99.90;;;;;;5115335;27;20232;-63
2024/02/18 00:18:34;;;;;;;43.80;30.98;;;10.70;99.90;;;;;;5122171;27;20043;-63
2024/02/18 00:20:59;;;;;;;46.35;32.88;;;10.90;99.90;;;;;;5113816;27;20042;-64
2024/02/18 00:23:25;;;;;;;46.17;30.85;;;10.70;99.90;;;;;;5118300;27;20046;-63
2024/02/18 00:25:51;;;;;;;43.65;29.17;;;10.70;99.90;;;;;;5112101;27;20076;-63
2024/02/18 00:28:17;;;;;;;47.30;30.98;;;10.80;99.90;;;;;;5109198;27;20075;-63
2024/02/18 00:30:42;;;;;;;45.42;28.65;;;10.70;99.90;;;;;;5117919;27;20043;-63
2024/02/18 00:33:08;;;;;;;45.70;30.55;;;10.70;99.90;;;;;;5121502;27;20035;-63
2024/02/18 00:35:34;;;;;;;42.00;30.63;;;10.70;99.90;;;;;;5127230;27;20039;-63
2024/02/18 00:37:59;;;;;;;39.50;29.95;;;10.70;99.90;;;;;;5111675;27;20047;-63
2024/02/18 00:40:25;;;;;;;44.05;30.40;;;10.70;99.90;;;;;;5109310;27;20035;-64
2024/02/18 00:42:51;;;;;;;43.85;29.38;;;10.70;99.90;;;;;;5111331;27;20252;-63
2024/02/18 00:45:16;;;;;;;43.60;30.00;;;10.70;99.90;;;;;;5113425;27;20032;-63
2024/02/18 00:47:42;;;;;;;43.33;29.83;;;10.60;99.90;;;;;;5117524;27;20401;-63
2024/02/18 00:50:08;;;;;;;40.53;29.20;;;10.60;99.90;;;;;;5117814;27;20182;-63
2024/02/18 00:52:34;;;;;;;49.67;29.83;;;10.60;99.90;;;;;;5115435;27;20606;-62
2024/02/18 00:55:00;;;;;;;43.40;30.08;;;10.60;99.90;;;;;;5115624;27;20079;-63
2024/02/18 00:57:26;;;;;;;42.13;28.48;;;10.60;99.90;;;;;;5116076;27;20495;-63
2024/02/18 00:59:52;;;;;;;43.65;29.85;;;10.60;99.90;;;;;;5116965;27;20032;-63
2024/02/18 01:02:17;;;;;;;39.03;28.15;;;10.60;99.90;;;;;;5115577;27;20740;-63
2024/02/18 01:04:43;;;;;;;43.75;29.95;;;10.70;99.90;;;;;;5123118;27;20120;-63
2024/02/18 01:07:09;;;;;;;36.63;27.90;;;10.60;99.90;;;;;;5112237;27;20561;-63
2024/02/18 01:09:36;;;;;;;40.47;28.63;;;10.60;99.90;;;;;;5117790;27;20043;-63
2024/02/18 01:12:02;;;;;;;42.50;28.52;;;10.70;99.90;;;;;;5115519;27;20046;-62
2024/02/18 01:14:28;;;;;;;38.90;28.33;;;10.60;99.90;;;;;;5109685;27;20039;-63
2024/02/18 01:16:53;;;;;;;43.15;28.65;;;10.70;99.90;;;;;;5118395;27;20042;-63
2024/02/18 01:19:20;;;;;;;39.72;26.50;;;10.50;99.90;;;;;;5117046;27;20164;-63
2024/02/18 01:21:46;;;;;;;39.42;27.30;;;10.70;99.90;;;;;;5116256;27;20043;-63
2024/02/18 01:24:12;;;;;;;35.45;25.90;;;10.50;99.90;;;;;;5122774;27;20043;-63
2024/02/18 01:26:37;;;;;;;34.78;25.40;;;10.60;99.90;;;;;;5115545;27;20087;-63
2024/02/18 01:29:03;;;;;;;36.42;27.10;;;10.60;99.90;;;;;;5111781;27;20116;-63
2024/02/18 01:31:29;;;;;;;38.58;27.02;;;10.60;99.90;;;;;;5112500;27;20127;-63
2024/02/18 01:33:55;;;;;;;38.50;26.27;;;10.70;99.90;;;;;;5117470;27;20055;-64
2024/02/18 01:36:20;;;;;;;40.63;26.20;;;10.70;99.90;;;;;;5116594;27;20074;-64
2024/02/18 01:38:46;;;;;;;34.33;25.10;;;10.60;99.90;;;;;;5106375;27;20162;-62
2024/02/18 01:41:12;;;;;;;37.88;25.52;;;10.70;99.90;;;;;;5112456;27;20359;-63
2024/02/18 01:43:38;;;;;;;35.90;25.40;;;10.60;99.90;;;;;;5116240;27;20062;-63
2024/02/18 01:46:04;;;;;;;36.22;24.20;;;10.60;99.90;;;;;;5117950;27;20050;-63
2024/02/18 01:48:31;;;;;;;41.00;25.30;;;10.60;99.90;;;;;;5106496;27;20606;-62
2024/02/18 01:50:58;;;;;;;29.95;23.70;;;10.60;99.90;;;;;;5114660;27;20074;-63
2024/02/18 01:53:24;;;;;;;31.02;23.40;;;10.60;99.90;;;;;;5111537;27;20096;-62
2024/02/18 01:55:50;;;;;;;35.67;22.85;;;10.60;99.90;;;;;;5113746;27;20449;-63
2024/02/18 01:58:16;;;;;;;33.75;23.30;;;10.60;99.90;;;;;;5115576;27;20119;-63
2024/02/18 02:00:43;;;;;;;33.38;23.17;;;10.60;99.90;;;;;;5118428;27;20090;-63
2024/02/18 02:03:10;;;;;;;28.48;21.33;;;10.60;99.90;;;;;;5107801;28;20031;-62
2024/02/18 02:05:40;;;;;;;30.10;21.60;;;10.60;99.90;;;;;;5111920;27;20039;-64
2024/02/18 02:08:06;;;;;;;32.70;22.00;;;10.70;99.90;;;;;;5116643;27;20058;-63
2024/02/18 02:10:32;;;;;;;34.55;21.98;;;10.70;99.90;;;;;;5121005;27;20043;-63
2024/02/18 02:12:58;;;;;;;30.30;21.55;;;10.60;99.90;;;;;;5106614;27;20492;-63
2024/02/18 02:15:24;;;;;;;34.58;20.40;;;10.70;99.90;;;;;;5115853;28;20050;-63
2024/02/18 02:17:50;;;;;;;27.33;20.17;;;10.60;99.90;;;;;;5116401;28;20050;-63
2024/02/18 02:20:16;;;;;;;32.67;19.95;;;10.70;99.90;;;;;;5116508;27;20043;-62
2024/02/18 02:22:41;;;;;;;28.92;19.65;;;10.70;99.90;;;;;;5118813;27;20044;-62
2024/02/18 02:25:10;;;;;;;25.27;17.98;;;10.70;99.90;;;;;;5111631;28;20047;-63
2024/02/18 02:27:37;;;;;;;;;;;10.70;99.90;;;;;;5104169;27;20043;-63
2024/02/18 02:30:04;;;;;;;29.73;18.40;;;10.70;99.90;;;;;;5110830;27;20442;-63
2024/02/18 02:32:31;;;;;;;26.42;17.70;;;10.70;99.90;;;;;;5111679;28;20042;-63
2024/02/18 02:34:58;;;;;;;29.08;18.25;;;10.70;99.90;;;;;;5112249;27;20106;-63
2024/02/18 02:37:24;;;;;;;23.80;17.52;;;10.60;99.90;;;;;;5118705;27;20273;-63
2024/02/18 02:39:53;;;;;;;29.08;16.52;;;10.70;99.90;;;;;;5114953;27;20050;-63
2024/02/18 02:42:19;;;;;;;23.95;16.17;;;10.60;99.90;;;;;;5117294;28;20619;-62
2024/02/18 02:44:44;;;;;;;27.45;16.23;;;10.70;99.90;;;;;;5114219;27;20205;-63
2024/02/18 02:47:10;;;;;;;22.27;15.85;;;10.70;99.90;;;;;;5121662;27;20188;-63
2024/02/18 02:49:36;;;;;;;25.90;15.98;;;10.70;99.90;;;;;;5114750;27;20437;-62
2024/02/18 02:52:02;;;;;;;27.80;15.98;;;10.40;99.90;;;;;;5108198;27;20391;-62
2024/02/18 02:54:28;;;;;;;25.88;16.83;;;10.70;99.90;;;;;;5121645;27;20062;-63
2024/02/18 02:56:53;;;;;;;23.00;14.93;;;10.70;99.90;;;;;;5109660;27;20067;-62
2024/02/18 02:59:20;;;;;;;24.80;15.32;;;10.70;99.90;;;;;;5112427;27;20039;-62
2024/02/18 03:01:45;;;;;;;27.42;14.25;;;10.70;99.90;;;;;;5114680;27;20100;-63
2024/02/18 03:04:12;;;;;;;22.55;13.48;;;10.70;99.90;;;;;;5106594;27;20051;-63
2024/02/18 03:06:38;;;;;;;21.10;13.35;;;10.70;99.90;;;;;;5123287;27;20038;-63
2024/02/18 03:09:04;;;;;;;25.00;13.40;;;10.80;99.90;;;;;;5116308;27;20126;-63
2024/02/18 03:11:30;;;;;;;29.08;13.30;;;10.80;99.90;;;;;;5125061;27;20039;-63
2024/02/18 03:13:56;;;;;;;21.42;13.77;;;10.80;99.90;;;;;;5115537;27;20035;-62
2024/02/18 03:16:21;;;;;;;18.52;13.40;;;10.90;99.90;;;;;;5108942;27;20032;-62
2024/02/18 03:18:47;;;;;;;22.95;12.52;;;10.90;99.90;;;;;;5119366;27;20451;-64
2024/02/18 03:21:13;;;;;;;24.45;12.15;;;10.90;99.90;;;;;;5116219;27;20035;-62
2024/02/18 03:23:39;;;;;;;21.23;11.90;;;10.90;99.90;;;;;;5113568;27;20521;-63
2024/02/18 03:26:05;;;;;;;18.52;11.90;;;10.90;99.90;;;;;;5121167;27;20035;-62
2024/02/18 03:28:30;;;;;;;15.75;10.60;;;10.90;99.90;;;;;;5121237;27;20402;-63
2024/02/18 03:30:56;;;;;;;15.35;11.27;;;10.90;99.90;;;;;;5112334;27;20050;-63
2024/02/18 03:33:22;;;;;;;19.08;10.88;;;11.00;99.90;;;;;;5117743;27;20373;-63
2024/02/18 03:35:48;;;;;;;16.10;10.60;;;11.00;99.90;;;;;;5121615;27;20504;-63
2024/02/18 03:38:14;;;;;;;22.95;11.32;;;11.10;99.90;;;;;;5114134;27;20039;-62
2024/02/18 03:40:40;;;;;;;16.05;10.63;;;11.00;99.90;;;;;;5118380;27;20043;-63
2024/02/18 03:43:06;;;;;;;21.75;10.00;;;11.00;99.90;;;;;;5117423;27;20039;-63
2024/02/18 03:45:32;;;;;;;17.98;10.30;;;11.00;99.90;;;;;;5108253;27;20035;-62
2024/02/18 03:47:57;;;;;;;20.02;11.18;;;11.00;99.90;;;;;;5122186;27;20044;-63
2024/02/18 03:50:23;;;;;;;18.08;10.40;;;11.00;99.90;;;;;;5111965;27;20552;-63
2024/02/18 03:52:49;;;;;;;15.75;10.00;;;11.00;99.90;;;;;;5119745;27;20038;-63
2024/02/18 03:55:15;;;;;;;21.65;10.40;;;10.90;99.90;;;;;;5121660;27;20057;-63
2024/02/18 03:57:42;;;;;;;17.38;10.40;;;10.90;99.90;;;;;;5109507;27;20040;-63
2024/02/18 04:00:10;;;;;;;20.10;10.93;;;10.90;99.90;;;;;;5117344;27;20046;-63
2024/02/18 04:02:38;;;;;;;19.67;10.60;;;10.90;99.90;;;;;;5117204;27;20043;-63
2024/02/18 04:05:06;;;;;;;17.92;10.27;;;10.90;99.90;;;;;;5117905;27;20642;-64
2024/02/18 04:07:33;;;;;;;15.70;9.87;;;10.80;99.90;;;;;;5116297;27;20569;-64
2024/02/18 04:09:59;;;;;;;23.27;11.25;;;10.80;99.90;;;;;;5121371;27;20054;-63
2024/02/18 04:12:25;;;;;;;18.55;9.10;;;10.80;99.90;;;;;;5123041;27;20050;-63
2024/02/18 04:14:51;;;;;;;18.92;9.70;;;10.80;99.90;;;;;;5117969;27;20039;-63
2024/02/18 04:17:16;;;;;;;17.98;9.07;;;10.80;99.90;;;;;;5119795;27;20046;-63
2024/02/18 04:19:42;;;;;;;18.05;9.57;;;10.80;99.90;;;;;;5121562;27;20361;-63
2024/02/18 04:22:08;;;;;;;13.88;8.23;;;10.70;99.90;;;;;;5115878;27;20372;-63
2024/02/18 04:24:34;;;;;;;23.23;9.32;;;10.80;99.90;;;;;;5115034;27;20063;-63
2024/02/18 04:27:08;;;;;;;11.85;8.40;;;10.70;99.90;;;;;;5104603;27;20058;-63
2024/02/18 04:29:36;;;;;;;19.05;8.30;;;10.80;99.90;;;;;;5113512;27;20517;-63
2024/02/18 04:32:02;;;;;;;19.92;8.95;;;10.80;99.90;;;;;;5117038;27;20027;-62
2024/02/18 04:34:28;;;;;;;17.05;7.78;;;10.70;99.90;;;;;;5113124;27;20035;-63
2024/02/18 04:36:54;;;;;;;17.67;8.45;;;10.80;99.90;;;;;;5117905;27;20039;-62
2024/02/18 04:39:20;;;;;;;13.23;7.90;;;10.80;99.90;;;;;;5114772;27;20047;-62
2024/02/18 04:41:46;;;;;;;14.45;7.75;;;10.70;99.90;;;;;;5116560;27;20089;-62
2024/02/18 04:44:11;;;;;;;10.93;8.20;;;10.70;99.90;;;;;;5118873;27;20160;-62
2024/02/18 04:46:37;;;;;;;16.83;7.35;;;10.80;99.90;;;;;;5110305;27;20039;-62
2024/02/18 04:49:04;;;;;;;15.98;7.45;;;10.80;99.90;;;;;;5115419;27;20185;-62
2024/02/18 04:51:30;;;;;;;16.08;7.25;;;10.70;99.90;;;;;;5120859;27;20114;-62
2024/02/18 04:53:56;;;;;;;10.73;7.00;;;10.80;99.90;;;;;;5114352;27;20035;-62
2024/02/18 04:56:22;;;;;;;13.43;6.72;;;10.70;99.90;;;;;;5111280;27;20442;-63
2024/02/18 04:58:48;;;;;;;18.23;6.70;;;10.80;99.90;;;;;;5118632;27;20483;-63
2024/02/18 05:01:13;;;;;;;13.98;7.53;;;10.70;99.90;;;;;;5112944;27;20119;-63
2024/02/18 05:03:41;;;;;;;11.40;7.32;;;10.80;99.90;;;;;;5104016;27;20549;-63
2024/02/18 05:06:16;;;;;;;15.98;6.32;;;10.70;99.90;;;;;;5118999;27;20171;-63
2024/02/18 05:08:41;;;;;;;12.70;6.57;;;10.70;99.90;;;;;;5113697;27;20043;-63
2024/02/18 05:11:07;;;;;;;17.17;6.65;;;10.70;99.90;;;;;;5121402;27;20131;-62
2024/02/18 05:13:33;;;;;;;12.77;6.55;;;10.60;99.90;;;;;;5110354;27;20046;-63
2024/02/18 05:15:59;;;;;;;15.40;6.85;;;10.70;99.90;;;;;;5120440;27;20172;-63
2024/02/18 05:18:24;;;;;;;12.93;6.50;;;10.60;99.90;;;;;;5118083;27;20095;-63
2024/02/18 05:20:50;;;;;;;13.10;5.80;;;10.60;99.90;;;;;;5111935;27;20221;-62
2024/02/18 05:23:17;;;;;;;13.50;6.40;;;10.60;99.90;;;;;;5117406;27;20148;-63
2024/02/18 05:25:44;;;;;;;14.40;6.18;;;10.60;99.90;;;;;;5115105;27;20041;-63
2024/02/18 05:28:09;;;;;;;13.02;6.07;;;10.60;99.90;;;;;;5120832;27;20537;-62
2024/02/18 05:30:35;;;;;;;12.13;5.65;;;10.50;99.90;;;;;;5110971;27;20032;-64
2024/02/18 05:33:02;;;;;;;11.48;5.65;;;10.50;99.90;;;;;;5106660;27;20147;-63
2024/02/18 05:35:27;;;;;;;12.05;5.45;;;10.50;99.90;;;;;;5121300;27;20047;-64
2024/02/18 05:37:53;;;;;;;14.13;5.38;;;10.50;99.90;;;;;;5115921;27;20062;-63
2024/02/18 05:40:19;;;;;;;15.60;6.07;;;10.50;99.90;;;;;;5120962;27;20047;-63
2024/02/18 05:42:45;;;;;;;14.50;5.45;;;10.50;99.90;;;;;;5113553;27;20116;-63
2024/02/18 05:45:11;;;;;;;14.63;5.57;;;10.50;99.90;;;;;;5122387;27;20130;-63
2024/02/18 05:47:37;;;;;;;12.60;5.28;;;10.40;99.90;;;;;;5119238;27;20050;-64
2024/02/18 05:50:03;;;;;;;9.93;4.93;;;10.50;99.90;;;;;;5111216;27;20039;-63
2024/02/18 05:52:28;;;;;;;10.88;4.75;;;10.50;99.90;;;;;;5117256;27;20371;-64
2024/02/18 05:54:54;;;;;;;16.05;5.55;;;10.50;99.90;;;;;;5107027;27;20040;-63
2024/02/18 05:57:20;;;;;;;10.27;4.47;;;10.50;99.90;;;;;;5116646;27;20046;-63
2024/02/18 05:59:46;;;;;;;10.07;4.63;;;10.40;99.90;;;;;;5120468;27;20047;-63
2024/02/18 06:02:11;;;;;;;8.80;5.10;;;10.40;99.90;;;;;;5119744;27;20070;-63
2024/02/18 06:04:37;;;;;;;9.10;4.80;;;10.40;99.90;;;;;;5118150;27;20619;-63
2024/02/18 06:07:03;;;;;;;12.35;4.43;;;10.50;99.90;;;;;;5120982;27;20047;-63
2024/02/18 06:09:28;;;;;;;11.82;4.25;;;10.50;99.90;;;;;;5117722;27;20042;-63
2024/02/18 06:11:54;;;;;;;8.32;4.15;;;10.40;99.90;;;;;;5108856;27;20082;-63
2024/02/18 06:14:21;;;;;;;9.80;4.10;;;10.50;99.90;;;;;;5109045;28;20134;-63
2024/02/18 06:16:47;;;;;;;14.07;4.78;;;10.40;99.90;;;;;;5119693;27;20067;-63
2024/02/18 06:19:13;;;;;;;10.10;4.22;;;10.50;99.90;;;;;;5112631;27;20696;-63
2024/02/18 06:21:39;;;;;;;13.23;4.28;;;10.40;99.90;;;;;;5116548;28;20128;-63
2024/02/18 06:24:05;;;;;;;11.05;4.38;;;10.50;99.90;;;;;;5111458;27;20172;-64
2024/02/18 06:26:31;;;;;;;9.18;3.72;;;10.40;99.90;;;;;;5114820;27;20095;-64
2024/02/18 06:28:56;;;;;;;8.75;3.78;;;10.40;99.90;;;;;;5119366;27;20039;-64
2024/02/18 06:31:22;;;;;;;9.82;3.78;;;10.50;99.90;;;;;;5114231;27;20079;-63
2024/02/18 06:33:48;;;;;;;12.40;3.80;;;10.40;99.90;;;;;;5115149;27;20038;-63
2024/02/18 06:36:15;;;;;;;10.35;4.43;;;10.40;99.90;;;;;;5117266;27;20066;-63
2024/02/18 06:38:44;;;;;;;9.32;4.13;;;10.40;99.90;;;;;;5123752;27;20027;-63
2024/02/18 06:41:11;;;;;;;9.05;3.78;;;10.50;99.90;;;;;;5112609;27;20083;-64
2024/02/18 06:43:37;;;;;;;10.68;4.03;;;10.40;99.90;;;;;;5122204;27;20118;-64
2024/02/18 06:46:03;;;;;;;10.35;4.82;;;10.40;99.90;;;;;;5110244;27;20050;-63
2024/02/18 06:48:30;;;;;;;9.90;4.38;;;10.40;99.90;;;;;;5125363;27;20039;-64
2024/02/18 06:50:56;;;;;;;13.40;3.95;;;10.50;99.90;;;;;;5125764;27;20062;-64
2024/02/18 06:53:22;;;;;;;12.05;3.83;;;10.40;99.90;;;;;;5126841;27;20117;-63
2024/02/18 06:55:48;;;;;;;8.90;4.38;;;10.50;99.90;;;;;;5129200;27;20035;-64
2024/02/18 06:58:16;;;;;;;11.60;3.92;;;10.40;99.90;;;;;;5129652;27;20036;-65
2024/02/18 07:00:42;;;;;;;8.67;4.23;;;10.30;99.90;;;;;;5128838;27;20038;-64
2024/02/18 07:03:07;;;;;;;14.65;4.57;;;10.40;99.90;;;;;;5128495;27;20479;-64
2024/02/18 07:05:33;;;;;;;9.60;3.88;;;10.40;99.90;;;;;;5129519;27;20034;-64
2024/02/18 07:07:59;;;;;;;8.50;4.07;;;10.40;99.90;;;;;;5127699;27;20447;-63
2024/02/18 07:10:25;;;;;;;10.35;4.15;;;10.30;99.90;;;;;;5132403;27;20039;-64
2024/02/18 07:12:51;;;;;;;9.13;3.97;;;10.40;99.90;;;;;;5128391;27;20027;-64
2024/02/18 07:15:17;;;;;;;9.88;4.47;;;10.40;99.90;;;;;;5128296;27;20031;-64
2024/02/18 07:17:42;;;;;;;10.73;4.40;;;10.40;99.90;;;;;;5130137;27;20398;-64
2024/02/18 07:20:09;;;;;;;12.07;4.10;;;10.30;99.90;;;;;;5132943;27;20412;-64
2024/02/18 07:22:35;;;;;;;10.32;4.05;;;10.30;99.90;;;;;;5127051;27;20531;-64
2024/02/18 07:25:02;;;;;;;10.27;4.25;;;10.40;99.90;;;;;;5118647;27;20039;-65
2024/02/18 07:27:28;;;;;;;7.95;3.65;;;10.40;99.90;;;;;;5128243;27;20311;-65
2024/02/18 07:29:55;;;;;;;8.02;4.32;;;10.30;99.90;;;;;;5127472;27;20057;-65
2024/02/18 07:32:22;;;;;;;10.45;4.35;;;10.30;99.90;;;;;;5117691;27;20492;-64
2024/02/18 07:34:48;;;;;;;11.02;4.65;;;10.40;99.90;;;;;;5122089;27;20124;-64
2024/02/18 07:37:13;;;;;;;8.35;4.13;;;10.30;99.90;;;;;;5126568;27;20113;-64
2024/02/18 07:39:39;;;;;;;14.77;5.07;;;10.20;99.90;;;;;;5130499;27;20495;-64
2024/02/18 07:42:05;;;;;;;13.90;4.57;;;10.40;99.90;;;;;;5129509;27;20102;-66
2024/02/18 07:44:31;;;;;;;11.80;4.70;;;10.20;99.90;;;;;;5128209;27;20055;-64
2024/02/18 07:46:57;;;;;;;9.90;4.50;;;10.30;99.90;;;;;;5126522;27;20497;-65
2024/02/18 07:49:24;;;;;;;13.18;5.05;;;10.30;99.90;;;;;;5129553;27;20039;-66
2024/02/18 07:51:50;;;;;;;12.13;4.43;;;10.30;99.90;;;;;;5125987;27;20072;-66
2024/02/18 07:54:17;;;;;;;8.35;4.88;;;10.20;99.90;;;;;;5130713;27;20513;-65
2024/02/18 07:56:43;;;;;;;12.43;5.28;;;10.30;99.90;;;;;;5127801;27;20043;-66
2024/02/18 07:59:09;;;;;;;12.98;5.68;;;10.20;99.90;;;;;;5131335;27;20089;-65
2024/02/18 08:01:34;;;;;;;7.07;4.50;;;10.20;99.90;;;;;;5131406;27;20697;-65
2024/02/18 08:04:00;;;;;;;13.45;5.25;;;10.30;99.90;;;;;;5125285;27;20121;-65
2024/02/18 08:06:29;;;;;;;11.38;5.20;;;10.30;99.90;;;;;;5128359;27;20057;-64
2024/02/18 08:08:55;;;;;;;13.85;5.50;;;10.30;99.90;;;;;;5122683;27;20065;-65
2024/02/18 08:11:21;;;;;;;16.00;5.90;;;10.30;99.90;;;;;;5129394;27;20055;-66
2024/02/18 08:13:47;;;;;;;15.20;6.07;;;10.30;99.90;;;;;;5126113;27;20557;-66
2024/02/18 08:16:13;;;;;;;10.75;5.30;;;10.20;99.90;;;;;;5126374;27;20597;-67
2024/02/18 08:18:39;;;;;;;13.23;5.15;;;10.30;99.90;;;;;;5128860;27;20380;-66
2024/02/18 08:21:06;;;;;;;11.10;5.22;;;10.30;99.90;;;;;;5127155;27;20051;-66
2024/02/18 08:23:32;;;;;;;9.85;5.07;;;10.20;99.90;;;;;;5125214;27;20584;-66
2024/02/18 08:25:57;;;;;;;11.00;4.93;;;10.20;99.90;;;;;;5126812;27;20068;-65
2024/02/18 08:28:23;;;;;;;13.80;6.05;;;10.20;99.90;;;;;;5127727;27;20038;-65
2024/02/18 08:30:49;;;;;;;11.98;5.88;;;10.20;99.90;;;;;;5128094;27;20067;-66
2024/02/18 08:33:15;;;;;;;14.05;6.20;;;10.20;99.90;;;;;;5126087;27;20374;-65
2024/02/18 08:35:41;;;;;;;12.27;5.63;;;10.20;99.90;;;;;;5126799;27;20453;-65
2024/02/18 08:38:07;;;;;;;10.57;6.15;;;10.10;99.90;;;;;;5127058;27;20074;-65
2024/02/18 08:40:33;;;;;;;13.88;6.10;;;10.20;99.90;;;;;;5124152;27;20239;-66
2024/02/18 08:42:58;;;;;;;12.48;6.15;;;10.10;99.90;;;;;;5127324;27;20091;-65
2024/02/18 08:45:24;;;;;;;13.15;5.80;;;10.10;99.90;;;;;;5128623;27;20072;-65
2024/02/18 08:47:50;;;;;;;11.73;5.50;;;10.10;99.90;;;;;;5109514;27;20519;-64
2024/02/18 08:50:16;;;;;;;13.45;5.70;;;10.20;99.90;;;;;;5123465;27;20170;-68
2024/02/18 08:52:41;;;;;;;14.43;5.45;;;10.00;99.90;;;;;;5130343;27;20043;-65
2024/02/18 08:55:07;;;;;;;14.73;5.22;;;10.10;99.90;;;;;;5126593;27;20058;-65
2024/02/18 08:57:33;;;;;;;9.68;5.05;;;10.20;99.90;;;;;;5127216;27;20153;-65
2024/02/18 09:00:02;;;;;;;11.23;5.22;;;10.10;99.90;;;;;;5127630;27;20364;-65
2024/02/18 09:02:28;;;;;;;14.88;4.40;;;10.10;99.90;;;;;;5128115;27;20087;-65
2024/02/18 09:04:54;;;;;;;10.95;4.53;;;10.10;99.90;;;;;;5124786;27;20047;-64
2024/02/18 09:07:20;;;;;;;9.45;4.97;;;10.10;99.90;;;;;;5127731;27;20038;-66
2024/02/18 09:09:45;;;;;;;10.57;5.18;;;10.10;99.90;;;;;;5125346;27;20333;-65
2024/02/18 09:12:11;;;;;;;8.68;4.68;;;10.20;99.90;;;;;;5129392;27;20508;-64
2024/02/18 09:14:37;;;;;;;11.65;4.72;;;10.10;99.90;;;;;;5129039;27;20035;-64
2024/02/18 09:17:03;;;;;;;9.35;3.80;;;10.20;99.90;;;;;;5127378;27;20150;-67
2024/02/18 09:19:28;;;;;;;8.35;4.18;;;10.10;99.90;;;;;;5125514;27;20146;-65
2024/02/18 09:21:54;;;;;;;6.93;3.83;;;10.20;99.90;;;;;;5127903;27;20100;-65
2024/02/18 09:24:20;;;;;;;8.32;4.03;;;10.10;99.90;;;;;;5126868;27;20622;-64
2024/02/18 09:26:45;;;;;;;6.50;3.53;;;10.10;99.90;;;;;;5129035;27;20681;-65
2024/02/18 09:29:11;;;;;;;7.82;3.28;;;10.20;99.90;;;;;;5123045;27;20040;-65
2024/02/18 09:31:37;;;;;;;7.53;3.10;;;10.20;99.90;;;;;;5125011;27;20034;-65
2024/02/18 09:34:03;;;;;;;6.93;3.50;;;10.20;99.90;;;;;;5125084;27;20043;-65
2024/02/18 09:36:29;;;;;;;6.93;3.90;;;10.20;99.90;;;;;;5128137;27;20039;-65
2024/02/18 09:38:55;;;;;;;6.30;3.42;;;10.30;99.90;;;;;;5128201;27;20037;-64
2024/02/18 09:41:23;;;;;;;7.40;3.38;;;10.40;99.90;;;;;;5125473;27;20034;-65
2024/02/18 09:43:51;;;;;;;6.15;3.25;;;10.40;99.90;;;;;;5125313;27;20446;-65
2024/02/18 09:46:20;;;;;;;5.85;3.50;;;10.30;99.90;;;;;;5125962;27;20454;-65
2024/02/18 09:48:46;;;;;;;9.57;3.20;;;10.30;99.90;;;;;;5126402;27;20557;-65
2024/02/18 09:51:15;;;;;;;8.82;3.80;;;10.30;99.90;;;;;;5126595;27;20043;-65
2024/02/18 09:53:41;;;;;;;5.13;2.85;;;10.30;99.90;;;;;;5125226;27;20523;-65
2024/02/18 09:56:07;;;;;;;6.25;3.80;;;10.30;99.90;;;;;;5127187;27;20184;-66
2024/02/18 09:58:34;;;;;;;9.70;4.38;;;10.30;99.90;;;;;;5128918;27;20138;-66
2024/02/18 10:01:01;;;;;;;4.78;3.50;;;10.30;99.90;;;;;;5129671;27;20130;-65
2024/02/18 10:03:27;;;;;;;6.03;2.85;;;10.30;99.90;;;;;;5125938;27;20530;-64
2024/02/18 10:05:54;;;;;;;5.60;2.95;;;10.30;99.90;;;;;;5126864;27;20525;-64
2024/02/18 10:08:20;;;;;;;10.10;3.33;;;10.30;99.90;;;;;;5125770;27;20043;-64
2024/02/18 10:10:46;;;;;;;7.05;3.20;;;10.30;99.90;;;;;;5106076;27;20039;-65
2024/02/18 10:13:13;;;;;;;7.05;3.17;;;10.30;99.90;;;;;;5127492;27;20050;-65
2024/02/18 10:15:39;;;;;;;6.78;3.60;;;10.40;99.90;;;;;;5118947;27;20437;-65
2024/02/18 10:18:13;;;;;;;5.25;3.20;;;10.30;99.90;;;;;;5121804;27;20051;-65
2024/02/18 10:20:41;;;;;;;4.38;3.00;;;10.30;99.90;;;;;;5124515;27;20156;-64
2024/02/18 10:23:07;;;;;;;6.55;2.90;;;10.20;99.90;;;;;;5124758;27;20529;-64
2024/02/18 10:25:32;;;;;;;7.00;2.90;;;10.30;99.90;;;;;;5124462;27;20126;-64
2024/02/18 10:27:58;;;;;;;6.03;3.10;;;10.20;99.90;;;;;;5121086;27;20637;-64
2024/02/18 10:30:24;;;;;;;6.72;3.05;;;10.30;99.90;;;;;;5123126;27;20035;-64
2024/02/18 10:32:50;;;;;;;5.13;2.88;;;10.20;99.90;;;;;;5127042;27;20039;-64
2024/02/18 10:35:16;;;;;;;6.35;2.90;;;10.20;99.90;;;;;;5126939;27;20549;-65
2024/02/18 10:37:42;;;;;;;7.10;2.83;;;10.20;99.90;;;;;;5123313;27;20039;-64
2024/02/18 10:40:13;;;;;;;5.53;2.40;;;10.20;99.90;;;;;;5126006;27;20047;-65
2024/02/18 10:42:45;;;;;;;6.07;3.13;;;10.30;99.90;;;;;;5127459;27;20038;-64
2024/02/18 10:45:12;;;;;;;4.65;2.53;;;10.20;99.90;;;;;;5124927;27;20110;-63
2024/02/18 10:47:46;;;;;;;4.85;2.60;;;10.30;99.90;;;;;;5123076;27;20035;-64
2024/02/18 10:50:13;;;;;;;6.85;3.15;;;10.20;99.90;;;;;;5123355;27;20042;-65
2024/02/18 10:52:44;;;;;;;6.03;2.67;;;10.30;99.90;;;;;;5125418;27;20789;-64
2024/02/18 10:55:24;;;;;;;7.05;2.60;;;10.20;99.90;;;;;;5126006;27;20567;-64
2024/02/18 10:58:37;;;;;;;4.30;2.40;;;10.30;99.90;;;;;;5124069;27;21168;-63
2024/02/18 11:01:07;;;;;;;6.38;2.72;;;10.20;99.90;;;;;;5114692;27;20134;-63
2024/02/18 11:03:40;;;;;;;6.68;2.42;;;10.30;99.90;;;;;;5124332;27;20537;-63
2024/02/18 11:06:07;;;;;;;6.05;2.53;;;10.20;99.90;;;;;;5125144;27;20054;-64
2024/02/18 11:08:35;;;;;;;3.65;2.10;;;10.30;99.90;;;;;;5124150;27;20035;-64
2024/02/18 11:11:02;;;;;;;5.97;2.78;;;10.30;99.90;;;;;;5124188;27;20039;-64
2024/02/18 11:13:30;;;;;;;4.93;2.60;;;10.20;99.90;;;;;;5128251;27;20074;-64
2024/02/18 11:15:57;;;;;;;7.35;2.78;;;10.20;99.90;;;;;;5127984;27;20035;-61
2024/02/18 11:18:24;;;;;;;6.43;3.00;;;10.20;99.90;;;;;;5124467;27;20039;-61
2024/02/18 11:20:51;;;;;;;4.13;2.47;;;10.20;99.90;;;;;;5131441;27;20505;-64
2024/02/18 11:23:17;;;;;;;5.15;2.78;;;10.10;99.90;;;;;;5128581;27;20043;-64
2024/02/18 11:25:44;;;;;;;4.57;2.58;;;10.20;99.90;;;;;;5118409;27;20080;-64
2024/02/18 11:28:10;;;;;;;7.82;2.95;;;10.20;99.90;;;;;;5121851;27;20121;-65
2024/02/18 11:30:36;;;;;;;3.80;2.22;;;10.10;99.90;;;;;;5121861;27;20044;-63
2024/02/18 11:33:02;;;;;;;5.13;2.53;;;10.10;99.90;;;;;;5123340;27;20070;-63
2024/02/18 11:35:28;;;;;;;4.50;1.88;;;10.10;99.90;;;;;;5129818;27;20479;-63
2024/02/18 11:37:57;;;;;;;4.47;2.10;;;10.10;99.90;;;;;;5123074;27;20031;-63
2024/02/18 11:40:23;;;;;;;8.05;3.28;;;10.10;99.90;;;;;;5124751;27;20035;-64
2024/02/18 11:42:49;;;;;;;5.03;2.42;;;10.10;99.90;;;;;;5122464;27;20568;-63
2024/02/18 11:45:17;;;;;;;5.50;2.58;;;9.90;99.90;;;;;;5127044;27;20066;-63
2024/02/18 11:47:50;;;;;;;4.03;2.40;;;10.00;99.90;;;;;;5128244;27;20509;-63
2024/02/18 11:50:20;;;;;;;3.92;2.53;;;9.90;99.90;;;;;;5129462;27;20035;-63
2024/02/18 11:52:48;;;;;;;5.25;2.60;;;10.00;99.90;;;;;;5128966;27;20095;-63
2024/02/18 11:55:21;;;;;;;3.55;2.55;;;9.90;99.90;;;;;;5127925;27;20394;-62
2024/02/18 11:57:48;;;;;;;5.68;2.63;;;10.00;99.90;;;;;;5126393;27;20039;-64
2024/02/18 12:00:18;;;;;;;3.40;2.80;;;10.00;99.90;;;;;;5129960;27;20265;-63
2024/02/18 12:02:50;;;;;;;7.47;3.22;;;10.00;99.90;;;;;;5129778;27;20088;-62
2024/02/18 12:05:17;;;;;;;4.97;3.15;;;9.90;99.90;;;;;;5126879;27;20417;-62
2024/02/18 12:07:46;;;;;;;4.57;2.95;;;10.00;99.90;;;;;;5128723;27;20660;-63
2024/02/18 12:10:12;;;;;;;5.88;2.72;;;9.90;99.90;;;;;;5127694;27;20056;-63
2024/02/18 12:12:38;;;;;;;6.43;2.90;;;10.00;99.90;;;;;;5130170;27;20032;-63
2024/02/18 12:15:04;;;;;;;3.70;2.88;;;10.00;99.90;;;;;;5127161;27;20034;-63
2024/02/18 12:17:30;;;;;;;5.03;3.00;;;9.90;99.90;;;;;;5130389;27;20034;-62
2024/02/18 12:19:56;;;;;;;3.90;2.80;;;9.90;99.90;;;;;;5127029;27;20035;-63
2024/02/18 12:22:29;;;;;;;4.00;2.65;;;9.90;99.90;;;;;;5123493;27;20043;-62
2024/02/18 12:24:58;;;;;;;4.55;3.10;;;9.90;99.90;;;;;;5126091;27;20031;-61
2024/02/18 12:27:24;;;;;;;5.20;3.00;;;9.80;99.90;;;;;;5125405;27;20034;-63
2024/02/18 12:29:52;;;;;;;5.30;3.25;;;9.90;99.90;;;;;;5128156;27;20043;-62
2024/02/18 12:32:18;;;;;;;5.10;3.10;;;9.90;99.90;;;;;;5125395;27;20047;-63
2024/02/18 12:34:50;;;;;;;3.08;2.58;;;9.80;99.90;;;;;;5126389;27;20091;-62